createdAt,value
2022-10-10T00:00:10.216Z,8.37
2022-10-10T00:02:37.012Z,8.26
2022-10-10T00:05:03.712Z,8.31
2022-10-10T00:07:30.378Z,8.29
2022-10-10T00:09:57.140Z,8.25
2022-10-10T00:12:23.651Z,8.24
2022-10-10T00:14:50.290Z,8.23
2022-10-10T00:17:17.048Z,8.21
2022-10-10T00:19:43.589Z,8.20
2022-10-10T00:22:10.258Z,8.18
2022-10-10T00:24:37.003Z,8.15
2022-10-10T00:27:03.538Z,8.14
2022-10-10T00:29:30.182Z,8.11
2022-10-10T00:31:56.947Z,8.08
2022-10-10T00:34:23.455Z,8.05
2022-10-10T00:36:50.004Z,8.03
2022-10-10T00:39:16.798Z,8.01
2022-10-10T00:41:43.309Z,7.98
2022-10-10T00:44:12.054Z,7.95
2022-10-10T00:46:39.171Z,7.93
2022-10-10T00:49:09.516Z,7.90
2022-10-10T00:51:36.914Z,7.89
2022-10-10T00:54:05.844Z,7.86
2022-10-10T00:56:37.799Z,7.84
2022-10-10T00:59:05.935Z,7.83
2022-10-10T01:01:32.591Z,7.79
2022-10-10T01:04:00.720Z,7.78
2022-10-10T01:06:28.392Z,7.76
2022-10-10T01:08:55.228Z,7.74
2022-10-10T01:11:24.758Z,7.71
2022-10-10T01:13:57.787Z,7.69
2022-10-10T01:16:34.378Z,7.68
2022-10-10T01:19:01.182Z,7.66
2022-10-10T01:21:46.007Z,7.64
2022-10-10T01:24:19.140Z,7.61
2022-10-10T01:27:00.431Z,7.58
2022-10-10T01:29:33.061Z,7.55
2022-10-10T01:32:11.768Z,7.52
2022-10-10T01:34:44.698Z,7.48
2022-10-10T01:37:19.505Z,7.46
2022-10-10T01:39:58.968Z,7.43
2022-10-10T01:42:31.946Z,7.41
2022-10-10T01:44:58.869Z,7.38
2022-10-10T01:47:25.363Z,7.36
2022-10-10T01:49:53.359Z,7.34
2022-10-10T01:52:29.781Z,7.32
2022-10-10T01:54:56.411Z,7.30
2022-10-10T01:57:44.247Z,7.27
2022-10-10T02:00:12.202Z,7.25
2022-10-10T02:03:01.354Z,7.23
2022-10-10T02:05:50.940Z,7.21
2022-10-10T02:08:26.691Z,7.18
2022-10-10T02:10:58.241Z,7.15
2022-10-10T02:13:26.629Z,7.13
2022-10-10T02:15:56.217Z,7.10
2022-10-10T02:18:26.130Z,7.08
2022-10-10T02:20:53.478Z,7.06
2022-10-10T02:23:21.536Z,7.05
2022-10-10T02:25:51.219Z,7.03
2022-10-10T02:28:29.408Z,7.02
2022-10-10T02:30:58.190Z,7.00
2022-10-10T02:33:31.976Z,6.99
2022-10-10T02:35:58.967Z,6.97
2022-10-10T02:38:26.091Z,6.94
2022-10-10T02:40:53.828Z,6.94
2022-10-10T02:43:20.382Z,6.91
2022-10-10T02:45:47.309Z,6.90
2022-10-10T02:48:13.840Z,6.87
2022-10-10T02:50:40.383Z,6.87
2022-10-10T02:53:07.178Z,6.84
2022-10-10T02:55:33.682Z,6.82
2022-10-10T02:58:00.176Z,6.80
2022-10-10T03:00:26.958Z,6.78
2022-10-10T03:02:53.782Z,6.76
2022-10-10T03:05:20.526Z,6.73
2022-10-10T03:07:47.423Z,6.72
2022-10-10T03:10:14.023Z,6.71
2022-10-10T03:12:40.521Z,6.68
2022-10-10T03:15:11.455Z,6.66
2022-10-10T03:17:38.981Z,6.64
2022-10-10T03:20:05.794Z,6.62
2022-10-10T03:22:32.606Z,6.58
2022-10-10T03:24:59.090Z,6.57
2022-10-10T03:27:25.666Z,6.55
2022-10-10T03:29:52.514Z,6.52
2022-10-10T03:32:19.108Z,6.51
2022-10-10T03:34:45.663Z,6.49
2022-10-10T03:37:12.594Z,6.48
2022-10-10T03:39:39.105Z,6.47
2022-10-10T03:42:05.621Z,6.45
2022-10-10T03:44:32.457Z,6.43
2022-10-10T03:46:58.971Z,6.42
2022-10-10T03:49:25.497Z,6.40
2022-10-10T03:51:53.609Z,6.38
2022-10-10T03:54:20.206Z,6.37
2022-10-10T03:56:46.763Z,6.36
2022-10-10T03:59:13.696Z,6.35
2022-10-10T04:01:40.493Z,6.33
2022-10-10T04:04:07.384Z,6.29
2022-10-10T04:06:33.999Z,6.29
2022-10-10T04:09:00.477Z,6.26
2022-10-10T04:11:27.529Z,6.24
2022-10-10T04:13:54.153Z,6.24
2022-10-10T04:16:20.673Z,6.21
2022-10-10T04:18:47.485Z,6.21
2022-10-10T04:21:14.134Z,6.19
2022-10-10T04:23:41.292Z,6.18
2022-10-10T04:26:08.232Z,6.16
2022-10-10T04:28:34.833Z,6.14
2022-10-10T04:31:01.398Z,6.14
2022-10-10T04:33:28.159Z,6.12
2022-10-10T04:35:54.660Z,6.13
2022-10-10T04:38:22.712Z,6.12
2022-10-10T04:40:50.763Z,6.12
2022-10-10T04:43:17.578Z,6.11
2022-10-10T04:45:44.146Z,6.11
2022-10-10T04:48:11.465Z,6.10
2022-10-10T04:50:38.100Z,6.10
2022-10-10T04:53:04.720Z,6.10
2022-10-10T04:55:31.547Z,6.10
2022-10-10T04:57:58.041Z,6.08
2022-10-10T05:00:24.557Z,6.09
2022-10-10T05:02:51.739Z,6.09
2022-10-10T05:05:18.488Z,6.10
2022-10-10T05:07:45.033Z,6.10
2022-10-10T05:10:12.227Z,6.13
2022-10-10T05:12:39.092Z,6.14
2022-10-10T05:15:06.248Z,6.16
2022-10-10T05:17:33.074Z,6.18
2022-10-10T05:19:59.585Z,6.21
2022-10-10T05:22:26.191Z,6.23
2022-10-10T05:24:53.015Z,6.25
2022-10-10T05:27:19.506Z,6.27
2022-10-10T05:29:46.051Z,6.29
2022-10-10T05:32:12.851Z,6.24
2022-10-10T05:34:39.500Z,6.34
2022-10-10T05:37:06.183Z,6.38
2022-10-10T05:39:32.951Z,6.41
2022-10-10T05:41:59.580Z,6.44
2022-10-10T05:44:26.210Z,6.48
2022-10-10T05:46:53.015Z,6.51
2022-10-10T05:49:19.797Z,6.54
2022-10-10T05:51:46.371Z,6.58
2022-10-10T05:54:13.162Z,6.62
2022-10-10T05:56:39.641Z,6.65
2022-10-10T05:59:06.294Z,6.69
2022-10-10T06:01:33.115Z,6.73
2022-10-10T06:03:59.970Z,6.78
2022-10-10T06:06:26.710Z,6.83
2022-10-10T06:08:53.462Z,6.89
2022-10-10T06:11:20.766Z,6.94
2022-10-10T06:13:49.734Z,7.01
2022-10-10T06:16:16.684Z,7.09
2022-10-10T06:18:43.856Z,7.16
2022-10-10T06:21:11.262Z,7.22
2022-10-10T06:23:37.934Z,7.33
2022-10-10T06:26:04.881Z,7.36
2022-10-10T06:28:31.798Z,7.54
2022-10-10T06:31:02.957Z,7.63
2022-10-10T06:33:30.076Z,7.71
2022-10-10T06:35:56.651Z,7.79
2022-10-10T06:51:18.568Z,8.97
2022-10-10T06:53:45.920Z,8.97
2022-10-10T06:56:17.932Z,8.60
2022-10-10T06:58:45.035Z,8.65
2022-10-10T07:01:11.947Z,8.55
2022-10-10T07:03:38.595Z,8.57
2022-10-10T07:06:09.580Z,8.55
2022-10-10T07:08:36.246Z,8.48
2022-10-10T07:11:03.243Z,8.55
2022-10-10T07:13:30.513Z,8.55
2022-10-10T07:15:57.154Z,8.54
2022-10-10T07:18:23.793Z,8.45
2022-10-10T07:20:50.894Z,8.46
2022-10-10T07:23:17.766Z,8.51
2022-10-10T07:25:44.414Z,8.51
2022-10-10T07:28:11.881Z,8.50
2022-10-10T07:30:44.014Z,8.50
2022-10-10T07:33:13.639Z,8.52
2022-10-10T07:35:40.506Z,8.55
2022-10-10T07:38:07.505Z,8.60
2022-10-10T07:40:34.497Z,8.63
2022-10-10T07:43:01.150Z,8.64
2022-10-10T07:45:27.832Z,8.63
2022-10-10T07:47:54.901Z,8.74
2022-10-10T07:50:21.644Z,8.77
2022-10-10T07:52:48.333Z,8.76
2022-10-10T07:55:15.398Z,8.78
2022-10-10T07:57:41.988Z,8.89
2022-10-10T08:00:10.135Z,8.93
2022-10-10T08:02:38.743Z,8.97
2022-10-10T08:05:06.101Z,8.99
2022-10-10T08:07:32.879Z,8.92
2022-10-10T08:09:59.729Z,9.07
2022-10-10T08:12:26.790Z,9.09
2022-10-10T08:14:53.609Z,9.12
2022-10-10T08:17:20.297Z,9.13
2022-10-10T08:19:47.332Z,9.13
2022-10-10T08:22:13.985Z,9.20
2022-10-10T08:24:40.584Z,9.26
2022-10-10T08:27:07.598Z,9.31
2022-10-10T08:29:34.347Z,9.35
2022-10-10T08:32:01.064Z,9.41
2022-10-10T08:34:28.046Z,9.45
2022-10-10T08:36:54.685Z,9.41
2022-10-10T08:39:21.433Z,9.56
2022-10-10T08:41:53.851Z,9.64
2022-10-10T08:44:41.108Z,9.72
2022-10-10T08:47:26.521Z,9.76
2022-10-10T08:50:03.979Z,9.84
2022-10-10T08:52:41.168Z,9.84
2022-10-10T08:55:31.080Z,9.87
2022-10-10T08:58:12.246Z,10.00
2022-10-10T09:00:45.875Z,10.00
2022-10-10T09:03:24.356Z,10.14
2022-10-10T09:06:12.813Z,10.22
2022-10-10T09:09:19.023Z,10.31
2022-10-10T09:12:01.068Z,10.37
2022-10-10T09:14:39.636Z,10.40
2022-10-10T09:17:21.510Z,10.44
2022-10-10T09:20:00.572Z,10.47
2022-10-10T09:22:32.366Z,10.51
2022-10-10T09:25:07.049Z,10.53
2022-10-10T09:27:40.446Z,10.56
2022-10-10T09:30:17.347Z,10.62
2022-10-10T09:32:54.884Z,10.66
2022-10-10T09:35:27.968Z,10.68
2022-10-10T09:38:24.251Z,10.71
2022-10-10T09:40:59.788Z,10.76
2022-10-10T09:43:31.441Z,10.81
2022-10-10T09:45:58.734Z,10.85
2022-10-10T09:48:31.275Z,10.85
2022-10-10T09:50:59.017Z,10.87
2022-10-10T09:53:25.997Z,10.87
2022-10-10T09:55:53.854Z,10.84
2022-10-10T09:58:27.775Z,10.94
2022-10-10T10:00:54.920Z,11.00
2022-10-10T10:03:22.983Z,11.04
2022-10-10T10:06:02.619Z,11.09
2022-10-10T10:08:31.770Z,11.14
2022-10-10T10:10:59.490Z,11.16
2022-10-10T10:13:35.698Z,11.24
2022-10-10T10:16:13.261Z,11.26
2022-10-10T10:18:45.528Z,11.30
2022-10-10T10:21:19.412Z,11.35
2022-10-10T10:23:54.157Z,11.39
2022-10-10T10:26:45.157Z,11.35
2022-10-10T10:29:24.306Z,11.45
2022-10-10T10:32:18.683Z,11.46
2022-10-10T10:35:07.472Z,11.46
2022-10-10T10:37:52.821Z,11.43
2022-10-10T10:41:01.403Z,11.41
2022-10-10T10:44:05.280Z,11.40
2022-10-10T10:46:54.092Z,11.37
2022-10-10T10:49:49.044Z,11.39
2022-10-10T10:52:50.745Z,11.41
2022-10-10T10:55:43.603Z,11.41
2022-10-10T11:04:16.073Z,11.38
2022-10-10T11:07:18.030Z,11.47
2022-10-10T11:10:20.383Z,11.47
2022-10-10T11:12:50.161Z,11.52
2022-10-10T11:15:23.298Z,11.45
2022-10-10T11:18:05.578Z,11.52
2022-10-10T11:20:42.114Z,11.54
2022-10-10T11:23:15.432Z,11.48
2022-10-10T11:25:47.444Z,11.58
2022-10-10T11:28:40.214Z,11.66
2022-10-10T11:31:21.835Z,11.69
2022-10-10T11:33:57.842Z,11.74
2022-10-10T11:36:29.128Z,11.74
2022-10-10T11:38:56.072Z,11.82
2022-10-10T11:41:39.883Z,11.80
2022-10-10T11:44:32.872Z,11.86
2022-10-10T11:47:08.796Z,11.87
2022-10-10T11:49:52.463Z,11.80
2022-10-10T11:52:33.592Z,11.88
2022-10-10T11:55:10.243Z,11.88
2022-10-10T11:57:44.663Z,11.89
2022-10-10T12:00:17.537Z,11.91
2022-10-10T12:02:46.562Z,11.90
2022-10-10T12:05:35.315Z,11.92
2022-10-10T12:08:26.066Z,11.93
2022-10-10T12:11:00.452Z,11.97
2022-10-10T12:13:38.596Z,11.99
2022-10-10T12:16:09.267Z,11.92
2022-10-10T12:18:59.475Z,11.95
2022-10-10T12:21:28.273Z,12.05
2022-10-10T12:24:11.028Z,12.07
2022-10-10T12:26:53.008Z,12.11
2022-10-10T12:29:39.087Z,12.12
2022-10-10T12:32:27.562Z,12.15
2022-10-10T12:35:00.868Z,12.13
2022-10-10T12:37:29.620Z,12.17
2022-10-10T12:40:07.081Z,12.15
2022-10-10T12:42:39.751Z,12.07
2022-10-10T12:45:28.767Z,12.10
2022-10-10T12:48:06.032Z,12.17
2022-10-10T12:50:37.613Z,12.20
2022-10-10T12:53:18.270Z,12.19
2022-10-10T12:55:47.837Z,12.20
2022-10-10T12:58:27.093Z,12.21
2022-10-10T13:01:03.622Z,12.22
2022-10-10T13:03:32.881Z,12.21
2022-10-10T13:06:08.549Z,12.22
2022-10-10T13:08:37.474Z,12.22
2022-10-10T13:11:12.789Z,12.20
2022-10-10T13:13:41.125Z,12.21
2022-10-10T13:16:17.215Z,12.21
2022-10-10T13:19:24.079Z,12.20
2022-10-10T13:21:55.683Z,12.19
2022-10-10T13:24:29.492Z,12.09
2022-10-10T13:26:56.824Z,12.13
2022-10-10T13:29:36.013Z,12.10
2022-10-10T13:32:09.325Z,12.11
2022-10-10T13:34:39.129Z,12.08
2022-10-10T13:37:06.974Z,12.09
2022-10-10T13:39:37.144Z,12.07
2022-10-10T13:42:06.059Z,12.07
2022-10-10T13:44:48.017Z,12.07
2022-10-10T13:47:46.735Z,12.06
2022-10-10T13:50:43.066Z,12.04
2022-10-10T13:53:28.828Z,12.03
2022-10-10T13:56:17.910Z,12.02
2022-10-10T13:58:48.949Z,12.00
2022-10-10T14:01:27.049Z,11.97
2022-10-10T14:03:58.451Z,11.95
2022-10-10T14:06:27.280Z,11.93
2022-10-10T14:09:02.109Z,11.91
2022-10-10T14:11:31.313Z,11.91
2022-10-10T14:14:06.783Z,11.90
2022-10-10T14:16:33.702Z,11.88
2022-10-10T14:19:00.603Z,11.85
2022-10-10T14:21:27.293Z,11.85
2022-10-10T14:23:54.063Z,11.84
2022-10-10T14:26:21.519Z,11.82
2022-10-10T14:28:48.450Z,11.80
2022-10-10T14:31:15.434Z,11.79
2022-10-10T14:33:42.383Z,11.74
2022-10-10T14:36:11.780Z,11.76
2022-10-10T14:38:38.405Z,11.73
2022-10-10T14:41:06.560Z,11.72
2022-10-10T14:43:33.636Z,11.69
2022-10-10T14:46:02.060Z,11.67
2022-10-10T14:48:29.114Z,11.63
2022-10-10T14:50:56.586Z,11.62
2022-10-10T14:53:23.677Z,11.50
2022-10-10T14:55:55.965Z,11.58
2022-10-10T14:58:23.309Z,11.54
2022-10-10T15:00:51.884Z,11.46
2022-10-10T15:03:19.027Z,11.46
2022-10-10T15:05:46.081Z,11.46
2022-10-10T15:08:18.062Z,11.43
2022-10-10T15:10:46.648Z,11.41
2022-10-10T15:13:15.026Z,11.37
2022-10-10T15:15:41.759Z,11.35
2022-10-10T15:18:25.626Z,11.32
2022-10-10T15:20:55.889Z,11.20
2022-10-10T15:23:22.503Z,11.26
2022-10-10T15:25:49.112Z,11.21
2022-10-10T15:28:16.092Z,11.17
2022-10-10T15:30:46.680Z,11.13
2022-10-10T15:33:13.337Z,11.10
2022-10-10T15:36:07.222Z,11.05
2022-10-10T15:38:28.425Z,11.03
2022-10-10T15:41:04.030Z,11.02
2022-10-10T15:43:31.412Z,11.02
2022-10-10T15:46:01.257Z,10.95
2022-10-10T15:48:27.925Z,10.94
2022-10-10T15:50:54.639Z,10.90
2022-10-10T15:53:21.666Z,10.80
2022-10-10T15:55:48.305Z,10.83
2022-10-10T15:58:15.698Z,10.78
2022-10-10T16:00:44.028Z,10.75
2022-10-10T16:03:11.715Z,10.71
2022-10-10T16:05:40.183Z,10.67
2022-10-10T16:08:07.982Z,10.62
2022-10-10T16:10:39.124Z,10.56
2022-10-10T16:13:06.213Z,10.51
2022-10-10T16:15:33.289Z,10.42
2022-10-10T16:18:00.353Z,10.45
2022-10-10T16:20:26.997Z,10.38
2022-10-10T16:22:53.790Z,10.37
2022-10-10T16:25:22.671Z,10.30
2022-10-10T16:27:49.975Z,10.19
2022-10-10T16:30:17.014Z,10.18
2022-10-10T16:32:43.892Z,10.20
2022-10-10T16:35:11.188Z,10.17
2022-10-10T16:37:39.000Z,10.12
2022-10-10T16:40:06.716Z,10.07
2022-10-10T16:42:34.896Z,10.05
2022-10-10T16:45:01.823Z,10.03
2022-10-10T16:47:28.742Z,10.00
2022-10-10T16:49:55.521Z,9.96
2022-10-10T16:52:22.205Z,9.91
2022-10-10T16:54:52.117Z,9.88
2022-10-10T16:57:19.659Z,9.84
2022-10-10T16:59:46.513Z,9.80
2022-10-10T17:02:13.598Z,9.76
2022-10-10T17:04:40.268Z,9.66
2022-10-10T17:07:06.993Z,9.63
2022-10-10T17:09:34.016Z,9.57
2022-10-10T17:12:00.647Z,9.62
2022-10-10T17:14:27.416Z,9.57
2022-10-10T17:20:00.025Z,9.43
2022-10-10T17:22:31.343Z,9.47
2022-10-10T17:24:58.302Z,9.42
2022-10-10T17:27:25.011Z,9.39
2022-10-10T17:29:53.465Z,9.37
2022-10-10T17:32:20.820Z,9.35
2022-10-10T17:34:47.618Z,9.31
2022-10-10T17:37:14.615Z,9.30
2022-10-10T17:39:41.284Z,9.27
2022-10-10T17:42:08.055Z,9.23
2022-10-10T17:44:41.932Z,9.21
2022-10-10T17:47:10.432Z,9.18
2022-10-10T17:49:37.638Z,9.12
2022-10-10T17:52:04.490Z,9.07
2022-10-10T17:54:31.211Z,9.03
2022-10-10T17:56:58.173Z,8.91
2022-10-10T17:59:24.821Z,8.98
2022-10-10T18:01:53.645Z,8.92
2022-10-10T18:04:20.613Z,8.86
2022-10-10T18:06:47.366Z,8.89
2022-10-10T18:09:14.105Z,8.98
2022-10-10T18:12:03.002Z,8.96
2022-10-10T18:14:29.820Z,8.97
2022-10-10T18:16:56.877Z,8.95
2022-10-10T18:19:23.748Z,8.95
2022-10-10T18:21:50.726Z,8.92
2022-10-10T18:24:20.544Z,8.93
2022-10-10T18:26:47.221Z,8.89
2022-10-10T18:29:14.577Z,8.92
2022-10-10T18:31:47.805Z,8.91
2022-10-10T18:34:14.419Z,8.87
2022-10-10T18:36:42.672Z,8.91
2022-10-10T18:39:12.668Z,8.89
2022-10-10T18:41:39.599Z,8.80
2022-10-10T18:44:10.634Z,8.85
2022-10-10T18:46:38.211Z,8.82
2022-10-10T18:49:06.278Z,8.78
2022-10-10T18:51:33.491Z,8.76
2022-10-10T18:54:05.100Z,8.72
2022-10-10T18:56:32.835Z,8.66
2022-10-10T18:59:02.179Z,8.55
2022-10-10T19:01:32.653Z,8.57
2022-10-10T19:04:00.378Z,8.51
2022-10-10T19:06:27.073Z,8.45
2022-10-10T19:08:55.784Z,8.40
2022-10-10T19:11:29.014Z,8.39
2022-10-10T19:13:56.550Z,8.34
2022-10-10T19:16:23.483Z,8.32
2022-10-10T19:18:50.188Z,8.27
2022-10-10T19:21:17.391Z,8.25
2022-10-10T19:23:45.184Z,8.23
2022-10-10T19:26:14.200Z,8.12
2022-10-10T19:28:42.043Z,8.17
2022-10-10T19:31:12.622Z,8.13
2022-10-10T19:33:40.847Z,8.10
2022-10-10T19:36:09.538Z,8.07
2022-10-10T19:38:39.085Z,8.02
2022-10-10T19:41:07.836Z,8.01
2022-10-10T19:43:34.871Z,7.98
2022-10-10T19:46:07.640Z,7.91
2022-10-10T19:48:34.926Z,7.93
2022-10-10T19:51:08.173Z,7.88
2022-10-10T19:53:36.054Z,7.87
2022-10-10T19:56:08.397Z,7.76
2022-10-10T19:58:35.907Z,7.80
2022-10-10T20:01:11.486Z,7.79
2022-10-10T20:06:05.119Z,7.73
2022-10-10T20:08:32.488Z,7.71
2022-10-10T20:10:59.889Z,7.68
2022-10-10T20:13:32.366Z,7.64
2022-10-10T20:16:03.234Z,7.60
2022-10-10T20:18:31.917Z,7.57
2022-10-10T20:21:17.621Z,7.53
2022-10-10T20:23:45.778Z,7.50
2022-10-10T20:26:15.582Z,7.47
2022-10-10T20:28:42.718Z,7.46
2022-10-10T20:31:31.267Z,7.45
2022-10-10T20:34:02.684Z,7.44
2022-10-10T20:36:31.272Z,7.44
2022-10-10T20:39:04.993Z,7.44
2022-10-10T20:41:33.788Z,7.44
2022-10-10T20:44:03.342Z,7.43
2022-10-10T20:46:33.876Z,7.37
2022-10-10T20:49:02.728Z,7.39
2022-10-10T20:51:29.662Z,7.43
2022-10-10T20:54:01.391Z,7.34
2022-10-10T20:56:30.013Z,7.41
2022-10-10T20:58:56.988Z,7.39
2022-10-10T21:01:28.279Z,7.37
2022-10-10T21:03:55.886Z,7.38
2022-10-10T21:06:25.065Z,7.35
2022-10-10T21:08:55.301Z,7.25
2022-10-10T21:11:23.290Z,7.33
2022-10-10T21:13:56.542Z,7.32
2022-10-10T21:16:37.962Z,7.27
2022-10-10T21:19:06.713Z,7.27
2022-10-10T21:21:35.192Z,7.25
2022-10-10T21:24:03.799Z,7.24
2022-10-10T21:26:31.212Z,7.22
2022-10-10T21:28:58.959Z,7.20
2022-10-10T21:31:28.669Z,7.10
2022-10-10T21:33:56.017Z,7.16
2022-10-10T21:36:25.255Z,7.13
2022-10-10T21:38:52.291Z,7.12
2022-10-10T21:41:21.472Z,7.07
2022-10-10T21:43:52.766Z,6.95
2022-10-10T21:46:24.871Z,7.00
2022-10-10T21:48:52.612Z,6.97
2022-10-10T21:51:20.675Z,6.96
2022-10-10T21:53:47.984Z,6.94
2022-10-10T21:56:15.211Z,6.93
2022-10-10T21:58:45.145Z,6.88
2022-10-10T22:01:18.179Z,6.81
2022-10-10T22:03:47.940Z,6.82
2022-10-10T22:06:20.174Z,6.83
2022-10-10T22:08:48.304Z,6.81
2022-10-10T22:11:19.264Z,6.79
2022-10-10T22:13:46.411Z,6.77
2022-10-10T22:16:13.570Z,6.74
2022-10-10T22:18:40.725Z,6.70
2022-10-10T22:21:10.586Z,6.72
2022-10-10T22:23:37.799Z,6.71
2022-10-10T22:26:08.591Z,6.63
2022-10-10T22:28:35.431Z,6.61
2022-10-10T22:31:07.426Z,6.67
2022-10-10T22:33:34.098Z,6.65
2022-10-10T22:36:00.966Z,6.58
2022-10-10T22:38:28.128Z,6.60
2022-10-10T22:40:54.732Z,6.59
2022-10-10T22:43:26.080Z,6.60
2022-10-10T22:45:54.259Z,6.59
2022-10-10T22:48:21.027Z,6.49
2022-10-10T22:50:47.680Z,6.57
2022-10-10T22:53:14.758Z,6.56
2022-10-10T22:55:41.707Z,6.54
2022-10-10T22:58:09.083Z,6.52
2022-10-10T23:00:36.165Z,6.43
2022-10-10T23:03:02.896Z,6.33
2022-10-10T23:05:29.531Z,6.34
2022-10-10T23:07:56.498Z,6.29
2022-10-10T23:10:23.087Z,6.25
2022-10-10T23:12:49.787Z,6.11
2022-10-10T23:15:16.805Z,6.20
2022-10-10T23:17:43.426Z,6.15
2022-10-10T23:20:10.350Z,6.11
2022-10-10T23:22:37.343Z,6.08
2022-10-10T23:25:04.675Z,6.06
2022-10-10T23:27:31.365Z,6.04
2022-10-10T23:29:58.268Z,6.03
2022-10-10T23:32:29.143Z,6.00
2022-10-10T23:34:56.597Z,5.90
2022-10-10T23:37:23.864Z,5.82
2022-10-10T23:39:50.509Z,5.87
2022-10-10T23:42:17.176Z,5.82
2022-10-10T23:44:44.037Z,5.71
2022-10-10T23:47:11.750Z,5.74
2022-10-10T23:49:38.373Z,5.71
2022-10-10T23:52:05.507Z,5.64
2022-10-10T23:54:32.839Z,5.62
2022-10-10T23:56:59.450Z,5.58
2022-10-10T23:59:26.502Z,5.54
